Time;durP1;ratioP1;P1;durP2;ratioP2;P2;SDS_P1;SDS_P2;PMS_P1;PMS_P2;Temp;Humidity;BMP_temperature;BMP_pressure;BME280_temperature;BME280_humidity;BME280_pressure;Samples;Min_cycle;Max_cycle;Signal;HPM_P1;HPM_P2
2022/03/03 00:02:07;;;;;;;0.40;0.40;;;;;;;;;;1847155;77;26334;-46
2022/03/03 00:04:34;;;;;;;0.40;0.40;;;;;;;;;;1846347;77;26318;-46
2022/03/03 00:07:02;;;;;;;1.37;0.40;;;;;;;;;;1844476;77;26252;-48
2022/03/03 00:09:29;;;;;;;0.40;0.40;;;;;;;;;;1846305;77;26782;-47
2022/03/03 00:11:56;;;;;;;0.47;0.45;;;;;;;;;;1846440;77;26708;-47
2022/03/03 00:14:23;;;;;;;0.40;0.40;;;;;;;;;;1847923;77;26783;-50
2022/03/03 00:16:50;;;;;;;0.42;0.42;;;;;;;;;;1846598;77;26280;-48
2022/03/03 00:19:18;;;;;;;0.30;0.30;;;;;;;;;;1848119;77;26681;-48
2022/03/03 00:21:45;;;;;;;0.40;0.40;;;;;;;;;;1855187;77;26393;-49
2022/03/03 00:24:12;;;;;;;0.30;0.30;;;;;;;;;;1856616;77;26276;-48
2022/03/03 00:26:40;;;;;;;0.40;0.40;;;;;;;;;;1854561;76;26329;-50
2022/03/03 00:29:07;;;;;;;0.35;0.35;;;;;;;;;;1855571;77;26776;-47
2022/03/03 00:31:35;;;;;;;0.62;0.47;;;;;;;;;;1856335;77;26350;-46
2022/03/03 00:34:03;;;;;;;0.40;0.40;;;;;;;;;;1856032;77;26356;-46
2022/03/03 00:36:30;;;;;;;0.40;0.40;;;;;;;;;;1856972;76;26259;-47
2022/03/03 00:38:57;;;;;;;2.12;0.40;;;;;;;;;;1856201;76;26706;-49
2022/03/03 00:41:25;;;;;;;0.62;0.40;;;;;;;;;;1857387;76;26538;-46
2022/03/03 00:43:52;;;;;;;0.30;0.20;;;;;;;;;;1855959;77;26333;-46
2022/03/03 00:46:19;;;;;;;0.75;0.40;;;;;;;;;;1856733;77;26256;-46
2022/03/03 00:48:46;;;;;;;0.30;0.30;;;;;;;;;;1854487;77;26318;-48
2022/03/03 00:51:14;;;;;;;0.30;0.30;;;;;;;;;;1856113;77;26272;-48
2022/03/03 00:53:41;;;;;;;0.30;0.30;;;;;;;;;;1850384;77;26818;-47
2022/03/03 00:56:09;;;;;;;0.20;0.20;;;;;;;;;;1852535;77;26816;-47
2022/03/03 00:58:36;;;;;;;0.20;0.20;;;;;;;;;;1855952;77;26216;-48
2022/03/03 01:01:03;;;;;;;0.88;0.28;;;;;;;;;;1855934;77;26256;-48
2022/03/03 01:03:30;;;;;;;0.30;0.30;;;;;;;;;;1856703;77;26251;-49
2022/03/03 01:05:58;;;;;;;0.55;0.37;;;;;;;;;;1855227;76;26799;-46
2022/03/03 01:08:25;;;;;;;0.37;0.37;;;;;;;;;;1856554;77;26325;-46
2022/03/03 01:10:53;;;;;;;0.30;0.30;;;;;;;;;;1855620;77;26703;-46
2022/03/03 01:13:22;;;;;;;0.40;0.40;;;;;;;;;;1856422;76;26810;-48
2022/03/03 01:15:50;;;;;;;0.33;0.33;;;;;;;;;;1856438;77;26881;-47
2022/03/03 01:18:17;;;;;;;0.30;0.30;;;;;;;;;;1854905;76;26341;-48
2022/03/03 01:20:44;;;;;;;0.55;0.50;;;;;;;;;;1854315;77;26719;-47
2022/03/03 01:23:12;;;;;;;0.42;0.20;;;;;;;;;;1856652;77;26937;-48
2022/03/03 01:25:39;;;;;;;0.40;0.40;;;;;;;;;;1855875;77;26259;-47
2022/03/03 01:28:06;;;;;;;0.10;0.10;;;;;;;;;;1854941;76;26280;-47
2022/03/03 01:30:34;;;;;;;0.30;0.30;;;;;;;;;;1856250;76;26360;-50
2022/03/03 01:33:01;;;;;;;0.37;0.37;;;;;;;;;;1855087;76;26283;-47
2022/03/03 01:35:28;;;;;;;0.20;0.20;;;;;;;;;;1855517;76;26200;-48
2022/03/03 01:37:56;;;;;;;0.20;0.20;;;;;;;;;;1855894;76;26244;-48
2022/03/03 01:40:23;;;;;;;0.28;0.28;;;;;;;;;;1857102;77;26652;-46
2022/03/03 01:42:51;;;;;;;0.55;0.30;;;;;;;;;;1856998;76;26260;-49
2022/03/03 01:45:19;;;;;;;0.30;0.30;;;;;;;;;;1851374;77;26789;-46
2022/03/03 01:47:46;;;;;;;0.33;0.20;;;;;;;;;;1852072;77;26296;-51
2022/03/03 01:50:14;;;;;;;0.30;0.30;;;;;;;;;;1857070;77;26357;-47
2022/03/03 01:52:41;;;;;;;0.30;0.30;;;;;;;;;;1852085;77;26362;-47
2022/03/03 01:55:10;;;;;;;0.33;0.33;;;;;;;;;;1856298;77;26306;-47
2022/03/03 01:57:37;;;;;;;1.22;0.33;;;;;;;;;;1857737;76;26743;-48
2022/03/03 02:00:06;;;;;;;0.20;0.20;;;;;;;;;;1855757;76;26302;-46
2022/03/03 02:02:34;;;;;;;0.20;0.20;;;;;;;;;;1855001;77;25799;-46
2022/03/03 02:05:01;;;;;;;0.30;0.30;;;;;;;;;;1857988;77;26822;-45
2022/03/03 02:07:28;;;;;;;0.30;0.30;;;;;;;;;;1848922;76;26256;-48
2022/03/03 02:09:56;;;;;;;0.20;0.20;;;;;;;;;;1855975;77;26261;-49
2022/03/03 02:12:23;;;;;;;0.30;0.30;;;;;;;;;;1857775;77;26687;-49
2022/03/03 02:14:50;;;;;;;0.20;0.20;;;;;;;;;;1857902;77;26710;-48
2022/03/03 02:17:18;;;;;;;0.30;0.30;;;;;;;;;;1856524;77;26197;-47
2022/03/03 02:19:46;;;;;;;0.15;0.15;;;;;;;;;;1853303;76;26590;-47
2022/03/03 02:22:13;;;;;;;0.30;0.30;;;;;;;;;;1851885;76;26304;-46
2022/03/03 02:24:41;;;;;;;0.20;0.20;;;;;;;;;;1844261;77;26641;-46
2022/03/03 02:27:08;;;;;;;1.27;0.30;;;;;;;;;;1848286;77;26740;-47
2022/03/03 02:29:36;;;;;;;0.20;0.20;;;;;;;;;;1848376;77;26588;-48
2022/03/03 02:32:04;;;;;;;0.30;0.25;;;;;;;;;;1849342;76;26778;-47
2022/03/03 02:34:32;;;;;;;0.20;0.20;;;;;;;;;;1849007;77;26248;-47
2022/03/03 02:36:59;;;;;;;0.40;0.28;;;;;;;;;;1848405;76;26708;-46
2022/03/03 02:39:27;;;;;;;0.30;0.30;;;;;;;;;;1848390;77;26825;-48
2022/03/03 02:41:54;;;;;;;0.23;0.10;;;;;;;;;;1841996;77;26775;-47
2022/03/03 02:44:21;;;;;;;0.30;0.30;;;;;;;;;;1845387;77;26271;-46
2022/03/03 02:46:49;;;;;;;0.10;0.10;;;;;;;;;;1846238;77;26265;-46
2022/03/03 02:49:16;;;;;;;0.23;0.23;;;;;;;;;;1868919;76;26257;-46
2022/03/03 02:51:43;;;;;;;0.25;0.25;;;;;;;;;;1844908;77;26744;-47
2022/03/03 02:54:11;;;;;;;0.20;0.20;;;;;;;;;;1844577;77;26874;-48
2022/03/03 02:57:53;;;;;;;0.20;0.20;;;;;;;;;;1847336;76;26854;-46
2022/03/03 02:59:07;;;;;;;0.30;0.30;;;;;;;;;;1842158;77;26736;-48
2022/03/03 03:01:34;;;;;;;0.35;0.35;;;;;;;;;;1848216;77;26318;-47
2022/03/03 03:04:01;;;;;;;0.82;0.25;;;;;;;;;;1847821;76;26357;-46
2022/03/03 03:06:29;;;;;;;0.00;0.00;;;;;;;;;;1850276;76;26275;-47
2022/03/03 03:08:56;;;;;;;0.30;0.30;;;;;;;;;;1848573;77;26255;-47
2022/03/03 03:11:23;;;;;;;0.23;0.23;;;;;;;;;;1847795;77;26276;-47
2022/03/03 03:13:50;;;;;;;0.20;0.20;;;;;;;;;;1848402;77;26259;-48
2022/03/03 03:16:18;;;;;;;0.10;0.10;;;;;;;;;;1844364;77;25719;-46
2022/03/03 03:18:45;;;;;;;0.10;0.10;;;;;;;;;;1837850;77;26715;-49
2022/03/03 03:21:12;;;;;;;0.40;0.30;;;;;;;;;;1846710;77;26284;-48
2022/03/03 03:23:40;;;;;;;0.10;0.10;;;;;;;;;;1848270;76;26295;-47
2022/03/03 03:26:07;;;;;;;0.20;0.20;;;;;;;;;;1840471;76;26704;-47
2022/03/03 03:28:34;;;;;;;0.20;0.20;;;;;;;;;;1848763;76;26267;-48
2022/03/03 03:31:02;;;;;;;0.20;0.20;;;;;;;;;;1847717;77;26334;-46
2022/03/03 03:33:29;;;;;;;0.20;0.20;;;;;;;;;;1846402;76;26273;-47
2022/03/03 03:35:56;;;;;;;0.30;0.30;;;;;;;;;;1844458;76;26249;-48
2022/03/03 03:38:23;;;;;;;0.30;0.30;;;;;;;;;;1848235;76;26251;-47
2022/03/03 03:40:51;;;;;;;1.85;0.17;;;;;;;;;;1847231;77;26373;-47
2022/03/03 03:43:18;;;;;;;0.20;0.20;;;;;;;;;;1841715;76;26739;-47
2022/03/03 03:45:45;;;;;;;0.20;0.20;;;;;;;;;;1847203;77;26804;-48
2022/03/03 03:48:12;;;;;;;0.20;0.20;;;;;;;;;;1844806;77;26829;-49
2022/03/03 03:50:40;;;;;;;0.20;0.20;;;;;;;;;;1838575;77;26665;-48
2022/03/03 03:53:07;;;;;;;0.13;0.13;;;;;;;;;;1843856;77;26291;-47
2022/03/03 03:55:34;;;;;;;0.20;0.20;;;;;;;;;;1834856;77;26293;-46
2022/03/03 03:58:01;;;;;;;0.42;0.42;;;;;;;;;;1848479;77;26243;-46
2022/03/03 04:00:29;;;;;;;0.13;0.13;;;;;;;;;;1848427;77;26193;-46
2022/03/03 04:02:56;;;;;;;0.00;0.00;;;;;;;;;;1848904;77;26735;-46
2022/03/03 04:05:24;;;;;;;0.10;0.10;;;;;;;;;;1847008;77;26846;-49
2022/03/03 04:07:51;;;;;;;0.20;0.20;;;;;;;;;;1846369;76;26349;-47
2022/03/03 04:10:19;;;;;;;0.10;0.10;;;;;;;;;;1836616;77;26836;-47
2022/03/03 04:12:46;;;;;;;0.10;0.10;;;;;;;;;;1848708;77;26252;-48
2022/03/03 04:15:13;;;;;;;0.30;0.30;;;;;;;;;;1848910;77;26719;-47
2022/03/03 04:17:41;;;;;;;0.10;0.10;;;;;;;;;;1847618;77;26687;-46
2022/03/03 04:20:09;;;;;;;0.20;0.20;;;;;;;;;;1848820;77;26259;-46
2022/03/03 04:22:36;;;;;;;0.20;0.20;;;;;;;;;;1851434;77;26669;-49
2022/03/03 04:25:04;;;;;;;0.20;0.20;;;;;;;;;;1857693;77;26262;-49
2022/03/03 04:27:32;;;;;;;0.13;0.13;;;;;;;;;;1858395;76;26664;-47
2022/03/03 04:29:59;;;;;;;0.10;0.10;;;;;;;;;;1857795;77;26263;-49
2022/03/03 04:32:26;;;;;;;0.20;0.20;;;;;;;;;;1857744;77;26338;-46
2022/03/03 04:34:54;;;;;;;0.10;0.10;;;;;;;;;;1858574;77;26208;-46
2022/03/03 04:37:21;;;;;;;0.10;0.10;;;;;;;;;;1857017;77;26200;-47
2022/03/03 04:39:48;;;;;;;0.10;0.10;;;;;;;;;;1856954;76;26854;-48
2022/03/03 04:42:15;;;;;;;0.30;0.20;;;;;;;;;;1856512;77;27513;-47
2022/03/03 04:44:43;;;;;;;0.20;0.20;;;;;;;;;;1858328;77;26559;-47
2022/03/03 04:47:10;;;;;;;0.23;0.23;;;;;;;;;;1857845;77;26259;-46
2022/03/03 04:49:37;;;;;;;0.17;0.17;;;;;;;;;;1857527;77;26335;-47
2022/03/03 04:52:05;;;;;;;0.20;0.10;;;;;;;;;;1857631;77;26279;-46
2022/03/03 04:54:32;;;;;;;0.13;0.13;;;;;;;;;;1856288;77;26299;-47
2022/03/03 04:56:59;;;;;;;0.17;0.17;;;;;;;;;;1855321;77;26248;-46
2022/03/03 04:59:26;;;;;;;0.20;0.20;;;;;;;;;;1857368;77;26252;-47
2022/03/03 05:01:54;;;;;;;0.10;0.10;;;;;;;;;;1856909;77;26303;-47
2022/03/03 05:04:21;;;;;;;0.20;0.20;;;;;;;;;;1857532;77;26236;-48
2022/03/03 05:06:49;;;;;;;0.15;0.15;;;;;;;;;;1853858;76;26286;-48
2022/03/03 05:09:16;;;;;;;0.30;0.13;;;;;;;;;;1856634;77;26787;-46
2022/03/03 05:11:44;;;;;;;0.10;0.10;;;;;;;;;;1857193;77;26303;-47
2022/03/03 05:14:11;;;;;;;0.20;0.20;;;;;;;;;;1856531;77;26596;-46
2022/03/03 05:16:39;;;;;;;0.23;0.20;;;;;;;;;;1853160;77;26193;-47
2022/03/03 05:19:07;;;;;;;0.10;0.10;;;;;;;;;;1856162;76;26699;-49
2022/03/03 05:21:34;;;;;;;0.45;0.30;;;;;;;;;;1855720;76;26306;-47
2022/03/03 05:24:02;;;;;;;0.10;0.10;;;;;;;;;;1845846;76;26335;-47
2022/03/03 05:26:29;;;;;;;0.75;0.20;;;;;;;;;;1847545;76;26865;-47
2022/03/03 05:28:57;;;;;;;0.10;0.10;;;;;;;;;;1846848;77;26785;-47
2022/03/03 05:31:24;;;;;;;0.80;0.13;;;;;;;;;;1846273;76;26330;-48
2022/03/03 05:33:51;;;;;;;0.20;0.20;;;;;;;;;;1847061;77;26610;-49
2022/03/03 05:36:19;;;;;;;0.20;0.20;;;;;;;;;;1846843;76;26333;-46
2022/03/03 05:38:46;;;;;;;0.10;0.10;;;;;;;;;;1843829;76;26785;-48
2022/03/03 05:41:13;;;;;;;0.10;0.10;;;;;;;;;;1847573;76;26329;-46
2022/03/03 05:43:41;;;;;;;0.20;0.20;;;;;;;;;;1846934;76;26283;-46
2022/03/03 05:46:09;;;;;;;0.10;0.10;;;;;;;;;;1847257;76;26252;-48
2022/03/03 05:48:36;;;;;;;0.15;0.15;;;;;;;;;;1847291;76;26326;-47
2022/03/03 05:51:03;;;;;;;0.10;0.10;;;;;;;;;;1847494;76;26334;-48
2022/03/03 05:53:31;;;;;;;1.27;0.20;;;;;;;;;;1846575;76;26882;-47
2022/03/03 05:55:59;;;;;;;0.55;0.10;;;;;;;;;;1840204;76;26303;-48
2022/03/03 05:58:28;;;;;;;0.68;0.20;;;;;;;;;;1840830;77;26346;-49
2022/03/03 06:00:57;;;;;;;0.10;0.10;;;;;;;;;;1839570;76;26287;-49
2022/03/03 06:03:25;;;;;;;0.10;0.10;;;;;;;;;;1845518;76;26284;-46
2022/03/03 06:05:53;;;;;;;0.10;0.10;;;;;;;;;;1841901;77;26268;-50
2022/03/03 06:08:23;;;;;;;2.95;0.33;;;;;;;;;;1844504;77;26791;-48
2022/03/03 06:10:54;;;;;;;0.65;0.30;;;;;;;;;;1844899;77;26381;-50
2022/03/03 06:13:28;;;;;;;1.10;0.33;;;;;;;;;;1844990;77;26201;-57
2022/03/03 06:15:55;;;;;;;3.75;0.40;;;;;;;;;;1845159;76;26275;-49
2022/03/03 06:18:27;;;;;;;1.10;0.40;;;;;;;;;;1849689;77;26375;-51
2022/03/03 06:20:55;;;;;;;2.92;0.10;;;;;;;;;;1848665;76;26268;-53
2022/03/03 06:23:23;;;;;;;0.33;0.25;;;;;;;;;;1838790;77;26315;-51
2022/03/03 06:25:51;;;;;;;0.40;0.23;;;;;;;;;;1851594;77;26282;-52
2022/03/03 06:28:19;;;;;;;5.05;0.30;;;;;;;;;;1851575;77;26256;-53
2022/03/03 06:30:46;;;;;;;0.28;0.20;;;;;;;;;;1852601;77;26190;-48
2022/03/03 06:33:14;;;;;;;0.80;0.30;;;;;;;;;;1847412;77;26636;-48
2022/03/03 06:35:41;;;;;;;0.35;0.20;;;;;;;;;;1853127;76;26331;-49
2022/03/03 06:38:08;;;;;;;0.33;0.20;;;;;;;;;;1851972;76;26333;-47
2022/03/03 06:40:36;;;;;;;8.38;0.33;;;;;;;;;;1848046;76;26352;-47
2022/03/03 06:43:03;;;;;;;0.28;0.28;;;;;;;;;;1848500;77;26297;-47
2022/03/03 06:45:31;;;;;;;0.95;0.30;;;;;;;;;;1848926;77;26228;-49
2022/03/03 06:48:00;;;;;;;0.20;0.20;;;;;;;;;;1850064;77;26264;-47
2022/03/03 06:50:28;;;;;;;0.37;0.25;;;;;;;;;;1853654;77;27370;-48
2022/03/03 06:52:56;;;;;;;1.50;0.30;;;;;;;;;;1853790;77;26308;-48
2022/03/03 06:55:25;;;;;;;0.65;0.30;;;;;;;;;;1848801;77;26744;-48
2022/03/03 06:57:56;;;;;;;1.42;0.20;;;;;;;;;;1854407;77;26349;-49
2022/03/03 07:00:28;;;;;;;0.42;0.28;;;;;;;;;;1853614;77;26688;-47
2022/03/03 07:02:55;;;;;;;0.10;0.10;;;;;;;;;;1848393;77;26255;-50
2022/03/03 07:05:23;;;;;;;0.13;0.13;;;;;;;;;;1850412;77;26669;-47
2022/03/03 07:07:52;;;;;;;0.20;0.20;;;;;;;;;;1847641;76;26284;-50
2022/03/03 07:10:23;;;;;;;0.20;0.20;;;;;;;;;;1853481;77;26268;-49
2022/03/03 07:12:49;;;;;;;0.10;0.10;;;;;;;;;;1853402;77;26308;-47
2022/03/03 07:15:17;;;;;;;0.30;0.20;;;;;;;;;;1840929;76;26308;-47
2022/03/03 07:17:46;;;;;;;2.10;0.13;;;;;;;;;;1849167;77;26248;-48
2022/03/03 07:20:16;;;;;;;0.75;0.20;;;;;;;;;;1847827;77;26613;-47
2022/03/03 07:23:01;;;;;;;1.25;0.28;;;;;;;;;;1851614;77;26351;-51
2022/03/03 07:25:30;;;;;;;2.35;0.25;;;;;;;;;;1835075;77;26304;-50
2022/03/03 07:27:59;;;;;;;0.37;0.20;;;;;;;;;;1843696;76;26268;-49
2022/03/03 07:30:26;;;;;;;0.20;0.20;;;;;;;;;;1848058;77;26269;-47
2022/03/03 07:32:58;;;;;;;0.60;0.20;;;;;;;;;;1847735;77;26720;-50
2022/03/03 07:35:26;;;;;;;1.75;0.20;;;;;;;;;;1847108;76;26657;-48
2022/03/03 07:38:00;;;;;;;0.20;0.20;;;;;;;;;;1848463;77;26411;-49
2022/03/03 07:40:29;;;;;;;0.20;0.20;;;;;;;;;;1847876;77;26365;-50
2022/03/03 07:42:57;;;;;;;0.42;0.30;;;;;;;;;;1847580;77;26648;-49
2022/03/03 07:45:25;;;;;;;0.10;0.10;;;;;;;;;;1845449;77;26260;-47
2022/03/03 07:47:59;;;;;;;0.23;0.23;;;;;;;;;;1846028;76;26553;-49
2022/03/03 07:50:24;;;;;;;0.13;0.10;;;;;;;;;;1845213;77;26287;-49
2022/03/03 07:52:52;;;;;;;0.40;0.20;;;;;;;;;;1844446;76;26843;-49
2022/03/03 07:55:19;;;;;;;3.75;0.35;;;;;;;;;;1847195;76;26377;-48
2022/03/03 07:57:59;;;;;;;0.10;0.10;;;;;;;;;;1847306;77;26823;-49
2022/03/03 08:00:31;;;;;;;0.65;0.20;;;;;;;;;;1848131;77;26850;-49
2022/03/03 08:03:00;;;;;;;2.72;0.10;;;;;;;;;;1845686;77;27239;-52
2022/03/03 08:05:30;;;;;;;1.70;0.40;;;;;;;;;;1843378;77;26264;-53
2022/03/03 08:07:58;;;;;;;0.13;0.13;;;;;;;;;;1846061;77;26248;-55
2022/03/03 08:10:27;;;;;;;0.13;0.13;;;;;;;;;;1842618;77;26276;-50
2022/03/03 08:12:56;;;;;;;0.20;0.20;;;;;;;;;;1847519;77;27131;-54
2022/03/03 08:15:23;;;;;;;0.20;0.20;;;;;;;;;;1841114;77;26311;-54
2022/03/03 08:17:51;;;;;;;0.10;0.10;;;;;;;;;;1845347;77;26236;-54
2022/03/03 08:20:20;;;;;;;0.20;0.20;;;;;;;;;;1842398;77;26276;-59
2022/03/03 08:22:47;;;;;;;0.13;0.13;;;;;;;;;;1844591;77;27226;-55
2022/03/03 08:25:16;;;;;;;0.17;0.17;;;;;;;;;;1847422;77;26293;-54
2022/03/03 08:27:43;;;;;;;0.17;0.17;;;;;;;;;;1844721;77;26286;-55
2022/03/03 08:30:12;;;;;;;0.30;0.20;;;;;;;;;;1850756;76;26186;-57
2022/03/03 08:32:41;;;;;;;0.20;0.20;;;;;;;;;;1835904;76;26252;-56
2022/03/03 08:35:16;;;;;;;0.42;0.10;;;;;;;;;;1860526;76;26237;-54
2022/03/03 08:37:45;;;;;;;0.13;0.13;;;;;;;;;;1846413;76;27788;-58
2022/03/03 08:40:14;;;;;;;0.17;0.17;;;;;;;;;;1832467;76;26605;-57
2022/03/03 08:42:43;;;;;;;0.33;0.33;;;;;;;;;;1848526;77;26193;-54
2022/03/03 08:45:11;;;;;;;0.10;0.10;;;;;;;;;;1848616;77;26326;-56
2022/03/03 08:47:39;;;;;;;0.28;0.28;;;;;;;;;;1846431;77;26280;-50
2022/03/03 08:50:08;;;;;;;0.10;0.10;;;;;;;;;;1845604;77;26319;-50
2022/03/03 08:52:39;;;;;;;0.15;0.15;;;;;;;;;;1847290;77;26289;-50
2022/03/03 08:55:08;;;;;;;0.20;0.20;;;;;;;;;;1847395;77;26697;-54
2022/03/03 08:57:35;;;;;;;0.20;0.20;;;;;;;;;;1839827;76;26287;-56
2022/03/03 09:00:04;;;;;;;0.45;0.30;;;;;;;;;;1839712;77;26272;-51
2022/03/03 09:02:32;;;;;;;0.10;0.10;;;;;;;;;;1846307;77;26291;-49
2022/03/03 09:05:00;;;;;;;0.20;0.20;;;;;;;;;;1825460;77;26773;-53
2022/03/03 09:07:28;;;;;;;0.10;0.10;;;;;;;;;;1839714;77;26341;-49
2022/03/03 09:09:55;;;;;;;0.10;0.10;;;;;;;;;;1844012;77;26272;-48
2022/03/03 09:12:23;;;;;;;0.13;0.13;;;;;;;;;;1841009;76;26284;-47
2022/03/03 09:14:51;;;;;;;0.20;0.20;;;;;;;;;;1842158;77;27501;-49
2022/03/03 09:17:18;;;;;;;0.30;0.30;;;;;;;;;;1845548;77;26603;-48
2022/03/03 09:19:47;;;;;;;0.20;0.20;;;;;;;;;;1846605;77;26240;-50
2022/03/03 09:22:15;;;;;;;0.20;0.20;;;;;;;;;;1848756;77;26276;-47
2022/03/03 09:24:42;;;;;;;0.23;0.20;;;;;;;;;;1846690;76;26323;-47
2022/03/03 09:27:09;;;;;;;0.30;0.30;;;;;;;;;;1855363;77;28790;-48
2022/03/03 09:29:37;;;;;;;0.30;0.30;;;;;;;;;;1846269;77;28684;-51
2022/03/03 09:32:05;;;;;;;0.10;0.10;;;;;;;;;;1848473;77;26295;-52
2022/03/03 09:34:33;;;;;;;0.20;0.20;;;;;;;;;;1848366;77;28762;-51
2022/03/03 09:37:01;;;;;;;0.10;0.10;;;;;;;;;;1862028;76;26318;-48
2022/03/03 09:39:28;;;;;;;0.20;0.20;;;;;;;;;;1857476;77;26247;-50
2022/03/03 09:41:56;;;;;;;0.78;0.17;;;;;;;;;;1848046;77;26263;-52
2022/03/03 09:44:24;;;;;;;0.20;0.20;;;;;;;;;;1852063;76;26291;-47
2022/03/03 09:46:52;;;;;;;0.20;0.20;;;;;;;;;;1860569;76;26298;-53
2022/03/03 09:49:20;;;;;;;0.20;0.20;;;;;;;;;;1861006;77;26301;-49
2022/03/03 09:51:50;;;;;;;0.30;0.30;;;;;;;;;;1863888;76;26267;-50
2022/03/03 09:54:18;;;;;;;0.13;0.13;;;;;;;;;;1854229;77;26530;-52
2022/03/03 09:56:48;;;;;;;0.17;0.17;;;;;;;;;;1863241;77;26322;-51
2022/03/03 09:59:15;;;;;;;0.30;0.30;;;;;;;;;;1851151;77;26271;-48
2022/03/03 10:01:42;;;;;;;0.30;0.30;;;;;;;;;;1861972;75;26342;-48
2022/03/03 10:04:23;;;;;;;0.20;0.20;;;;;;;;;;1861819;75;26354;-52
2022/03/03 10:06:51;;;;;;;0.20;0.20;;;;;;;;;;1860886;76;26296;-47
2022/03/03 10:09:19;;;;;;;0.20;0.20;;;;;;;;;;1863294;77;26295;-53
2022/03/03 10:11:50;;;;;;;0.25;0.20;;;;;;;;;;1858243;77;26271;-48
2022/03/03 10:14:31;;;;;;;2.12;0.30;;;;;;;;;;1857201;76;26831;-52
2022/03/03 10:16:59;;;;;;;0.20;0.20;;;;;;;;;;1863646;77;26349;-49
2022/03/03 10:19:27;;;;;;;0.10;0.10;;;;;;;;;;1862668;77;26361;-48
2022/03/03 10:21:55;;;;;;;0.30;0.30;;;;;;;;;;1862784;76;26605;-50
2022/03/03 10:24:24;;;;;;;0.10;0.10;;;;;;;;;;1862656;77;26263;-50
2022/03/03 10:26:59;;;;;;;0.30;0.30;;;;;;;;;;1858063;76;26662;-50
2022/03/03 10:29:27;;;;;;;0.10;0.10;;;;;;;;;;1856303;77;26288;-47
2022/03/03 10:31:55;;;;;;;0.10;0.10;;;;;;;;;;1851740;77;26733;-47
2022/03/03 10:34:24;;;;;;;0.10;0.10;;;;;;;;;;1855119;77;26790;-50
2022/03/03 10:36:59;;;;;;;0.17;0.13;;;;;;;;;;1852854;76;26634;-49
2022/03/03 10:39:28;;;;;;;0.30;0.30;;;;;;;;;;1853101;77;26279;-47
2022/03/03 10:41:56;;;;;;;0.20;0.20;;;;;;;;;;1853255;77;26645;-47
2022/03/03 10:44:25;;;;;;;0.10;0.10;;;;;;;;;;1855696;77;26627;-46
2022/03/03 10:47:03;;;;;;;0.03;0.03;;;;;;;;;;1855075;76;26382;-48
2022/03/03 10:49:31;;;;;;;0.53;0.20;;;;;;;;;;1855146;77;26282;-48
2022/03/03 10:52:12;;;;;;;0.10;0.10;;;;;;;;;;1853885;77;26294;-49
2022/03/03 10:54:50;;;;;;;0.10;0.10;;;;;;;;;;1854420;77;26331;-50
2022/03/03 10:57:30;;;;;;;0.10;0.10;;;;;;;;;;1855413;77;25738;-47
2022/03/03 10:59:59;;;;;;;0.10;0.10;;;;;;;;;;1853638;77;26208;-48
2022/03/03 11:02:30;;;;;;;0.20;0.20;;;;;;;;;;1852848;77;26381;-48
2022/03/03 11:04:57;;;;;;;0.17;0.17;;;;;;;;;;1851678;77;26362;-47
2022/03/03 11:07:25;;;;;;;0.08;0.08;;;;;;;;;;1855839;77;26738;-47
2022/03/03 11:09:52;;;;;;;0.20;0.20;;;;;;;;;;1854954;77;26318;-50
2022/03/03 11:12:20;;;;;;;0.17;0.17;;;;;;;;;;1854154;77;26356;-47
2022/03/03 11:14:47;;;;;;;0.30;0.30;;;;;;;;;;1856257;77;26350;-46
2022/03/03 11:17:15;;;;;;;0.20;0.20;;;;;;;;;;1855677;76;26836;-46
2022/03/03 11:19:42;;;;;;;1.22;0.40;;;;;;;;;;1855761;77;26284;-47
2022/03/03 11:22:09;;;;;;;1.00;0.50;;;;;;;;;;1855514;77;26280;-47
2022/03/03 11:24:38;;;;;;;0.40;0.40;;;;;;;;;;1853341;77;26393;-46
2022/03/03 11:27:06;;;;;;;0.90;0.40;;;;;;;;;;1860821;77;26303;-49
2022/03/03 11:29:37;;;;;;;2.50;0.47;;;;;;;;;;1858999;77;26400;-47
2022/03/03 11:32:04;;;;;;;1.27;0.70;;;;;;;;;;1862949;77;26398;-47
2022/03/03 11:34:33;;;;;;;1.92;0.50;;;;;;;;;;1861530;77;26263;-49
2022/03/03 11:37:02;;;;;;;1.07;0.62;;;;;;;;;;1862945;76;26802;-47
2022/03/03 11:39:39;;;;;;;0.50;0.45;;;;;;;;;;1859849;76;26345;-46
2022/03/03 11:42:20;;;;;;;2.10;0.47;;;;;;;;;;1850434;77;26918;-45
2022/03/03 11:44:48;;;;;;;0.68;0.30;;;;;;;;;;1799615;77;26279;-46
2022/03/03 11:47:18;;;;;;;1.02;0.37;;;;;;;;;;1854779;77;26290;-47
2022/03/03 11:49:59;;;;;;;0.55;0.37;;;;;;;;;;1862901;76;26290;-48
2022/03/03 11:52:26;;;;;;;1.10;0.45;;;;;;;;;;1841971;77;26798;-46
2022/03/03 11:54:56;;;;;;;1.27;0.40;;;;;;;;;;1860060;77;26747;-46
2022/03/03 11:57:27;;;;;;;1.42;0.50;;;;;;;;;;1845129;77;26291;-46
2022/03/03 11:59:53;;;;;;;1.65;0.60;;;;;;;;;;1862658;77;26404;-49
2022/03/03 12:02:22;;;;;;;0.50;0.50;;;;;;;;;;1856956;77;26578;-47
2022/03/03 12:04:51;;;;;;;2.90;0.50;;;;;;;;;;1851566;77;26341;-45
2022/03/03 12:07:29;;;;;;;0.40;0.40;;;;;;;;;;1857439;76;26239;-45
2022/03/03 12:09:59;;;;;;;1.50;0.53;;;;;;;;;;1855227;77;27439;-45
2022/03/03 12:12:32;;;;;;;0.72;0.30;;;;;;;;;;1853252;77;26338;-46
2022/03/03 12:15:01;;;;;;;0.62;0.40;;;;;;;;;;1861991;77;26274;-48
2022/03/03 12:17:36;;;;;;;1.00;0.40;;;;;;;;;;1865083;76;26291;-44
2022/03/03 12:20:22;;;;;;;0.33;0.30;;;;;;;;;;1858616;76;26735;-47
2022/03/03 12:22:51;;;;;;;0.50;0.40;;;;;;;;;;1861184;77;26264;-44
2022/03/03 12:25:36;;;;;;;0.47;0.47;;;;;;;;;;1843753;77;26333;-46
2022/03/03 12:28:16;;;;;;;0.30;0.30;;;;;;;;;;1848101;77;26748;-45
2022/03/03 12:30:44;;;;;;;1.25;0.20;;;;;;;;;;1847636;77;26264;-45
2022/03/03 12:33:19;;;;;;;0.78;0.30;;;;;;;;;;1847357;77;26272;-46
2022/03/03 12:35:47;;;;;;;0.30;0.30;;;;;;;;;;1845844;76;26303;-46
2022/03/03 12:38:14;;;;;;;0.37;0.30;;;;;;;;;;1845686;77;26323;-49
2022/03/03 12:40:42;;;;;;;0.75;0.35;;;;;;;;;;1847909;77;26205;-51
2022/03/03 12:43:16;;;;;;;0.30;0.30;;;;;;;;;;1836944;77;38563;-49
2022/03/03 12:45:44;;;;;;;0.30;0.30;;;;;;;;;;1844204;77;26772;-48
2022/03/03 12:48:12;;;;;;;0.30;0.30;;;;;;;;;;1845937;77;26622;-48
2022/03/03 12:50:40;;;;;;;0.20;0.20;;;;;;;;;;1843829;77;26284;-50
2022/03/03 12:53:11;;;;;;;0.75;0.28;;;;;;;;;;1845138;77;26218;-48
2022/03/03 12:55:44;;;;;;;0.37;0.10;;;;;;;;;;1842565;77;26433;-48
2022/03/03 12:58:13;;;;;;;0.65;0.45;;;;;;;;;;1846581;77;26662;-50
2022/03/03 13:00:41;;;;;;;0.85;0.30;;;;;;;;;;1847545;77;26208;-53
2022/03/03 13:03:10;;;;;;;0.62;0.30;;;;;;;;;;1847800;77;26778;-52
2022/03/03 13:05:46;;;;;;;0.30;0.30;;;;;;;;;;1847014;77;26303;-51
2022/03/03 13:08:23;;;;;;;0.30;0.20;;;;;;;;;;1843476;77;26443;-49
2022/03/03 13:10:52;;;;;;;0.30;0.30;;;;;;;;;;1844590;77;26684;-49
2022/03/03 13:13:20;;;;;;;0.47;0.20;;;;;;;;;;1847170;76;26298;-49
2022/03/03 13:15:48;;;;;;;0.95;0.40;;;;;;;;;;1847697;77;26326;-49
2022/03/03 13:18:17;;;;;;;0.40;0.40;;;;;;;;;;1848531;76;26330;-49
2022/03/03 13:20:45;;;;;;;0.00;0.00;;;;;;;;;;1849224;77;26277;-49
2022/03/03 13:23:14;;;;;;;0.30;0.30;;;;;;;;;;1848691;77;26318;-48
2022/03/03 13:25:42;;;;;;;0.20;0.20;;;;;;;;;;1848973;77;26224;-48
2022/03/03 13:28:11;;;;;;;0.20;0.20;;;;;;;;;;1828212;77;26401;-47
2022/03/03 13:30:40;;;;;;;0.70;0.30;;;;;;;;;;1823022;77;26558;-52
2022/03/03 13:33:07;;;;;;;0.23;0.23;;;;;;;;;;1813088;79;26266;-49
2022/03/03 13:35:39;;;;;;;0.15;0.10;;;;;;;;;;1793713;79;26271;-53
2022/03/03 13:38:07;;;;;;;0.20;0.20;;;;;;;;;;1805897;78;26267;-49
2022/03/03 13:40:36;;;;;;;0.65;0.20;;;;;;;;;;1819555;77;26290;-50
2022/03/03 13:43:04;;;;;;;0.20;0.20;;;;;;;;;;1821901;77;26792;-55
2022/03/03 13:45:33;;;;;;;0.30;0.23;;;;;;;;;;1814720;78;26288;-51
2022/03/03 13:48:05;;;;;;;0.20;0.20;;;;;;;;;;1822138;78;26270;-52
2022/03/03 13:50:34;;;;;;;0.10;0.10;;;;;;;;;;1807335;79;26352;-48
2022/03/03 13:53:15;;;;;;;0.20;0.20;;;;;;;;;;1821522;79;26775;-47
2022/03/03 13:55:43;;;;;;;0.10;0.10;;;;;;;;;;1821724;78;26316;-49
2022/03/03 13:58:11;;;;;;;1.57;0.35;;;;;;;;;;1821829;78;22960;-46
2022/03/03 14:00:42;;;;;;;0.20;0.20;;;;;;;;;;1816775;78;28222;-47
2022/03/03 14:03:12;;;;;;;0.10;0.10;;;;;;;;;;1826753;78;26317;-49
2022/03/03 14:05:41;;;;;;;0.10;0.10;;;;;;;;;;1814609;78;27252;-51
2022/03/03 14:08:27;;;;;;;0.10;0.10;;;;;;;;;;1819482;78;26279;-53
2022/03/03 14:10:58;;;;;;;0.40;0.20;;;;;;;;;;1825898;78;26780;-51
2022/03/03 14:13:27;;;;;;;0.15;0.15;;;;;;;;;;1792487;80;26347;-49
2022/03/03 14:15:55;;;;;;;0.10;0.10;;;;;;;;;;1757841;80;26309;-54
2022/03/03 14:18:24;;;;;;;0.20;0.20;;;;;;;;;;1759425;81;26285;-46
2022/03/03 14:20:52;;;;;;;0.10;0.10;;;;;;;;;;1759397;81;26308;-48
2022/03/03 14:23:21;;;;;;;0.20;0.20;;;;;;;;;;1759972;81;26277;-47
2022/03/03 14:25:49;;;;;;;0.13;0.13;;;;;;;;;;1758892;80;26349;-54
2022/03/03 14:28:17;;;;;;;0.20;0.20;;;;;;;;;;1762539;80;26324;-52
2022/03/03 14:30:45;;;;;;;0.20;0.10;;;;;;;;;;1764750;80;26340;-53
2022/03/03 14:33:13;;;;;;;0.10;0.10;;;;;;;;;;1761418;80;26752;-49
2022/03/03 14:35:41;;;;;;;0.37;0.20;;;;;;;;;;1771902;80;26210;-47
2022/03/03 14:38:08;;;;;;;0.10;0.10;;;;;;;;;;1763578;80;28329;-46
2022/03/03 14:40:35;;;;;;;0.20;0.20;;;;;;;;;;1759621;80;26296;-47
2022/03/03 14:43:03;;;;;;;0.10;0.10;;;;;;;;;;1760986;81;26230;-49
2022/03/03 14:45:30;;;;;;;0.20;0.20;;;;;;;;;;1770029;80;26288;-50
2022/03/03 14:47:58;;;;;;;0.10;0.10;;;;;;;;;;1763140;80;26355;-48
2022/03/03 14:50:27;;;;;;;0.20;0.20;;;;;;;;;;1764800;80;26296;-49
2022/03/03 14:52:55;;;;;;;0.10;0.10;;;;;;;;;;1773932;80;26316;-49